Tampa Triumph — 3EJB3 — position and weather

sailwx.info

Track history (hours):
 
Tides and Currents Weather Stations Pressure Air Temp Water Temp Dewpoint Dewpoint Depression Visibility Wind Speed Wind Dir Waves Ship Positions

Tampa Triumph

Last reported at 2018-Apr-12 20:41 UTC. Time now 2018-Apr-20 12:52 UTC.
Position N 01°17' E 103°20'.

Length 365 m; draft 14 m.

Type: Cargo ship. MMSI: 374935000.

Date/timePositionNaut miles runAvg speedWind from/ knotsBaromVisibWave heightAir tempDewpointWater temp
2018-Apr-12 20:41N 01°17' E 103°20'422.4
2018-Apr-12 20:31N 01°15' E 103°23'1121.1
2018-Apr-12 19:59N 01°12' E 103°34'816.1
2018-Apr-12 19:29N 01°09' E 103°42'5 9.7
2018-Apr-12 19:00N 01°09' E 103°46'612.3
2018-Apr-12 18:30N 01°12' E 103°52'714.4
2018-Apr-12 18:01N 01°15' E 103°58'  
2018-Apr-08 04:18N 23°07' E 117°28'616.2
2018-Apr-08 03:57N 23°11' E 117°32'816.9
2018-Apr-08 03:30N 23°15' E 117°39'816.8
2018-Apr-08 03:00N 23°20' E 117°46'917.2
2018-Apr-08 02:30N 23°24' E 117°54'917.3
2018-Apr-08 01:58N 23°29' E 118°03'817.5
2018-Apr-08 01:30N 23°33' E 118°11'16317.7
2018-Apr-07 16:18N 25°02' E 120°40'617.8
2018-Apr-07 15:56N 25°06' E 120°46'818.0
2018-Apr-07 15:30N 25°10' E 120°54'816.0
2018-Apr-07 15:00N 25°14' E 121°01'612.1
2018-Apr-07 14:30N 25°15' E 121°08'611.7
2018-Apr-07 14:01N 25°15' E 121°14'510.3
2018-Apr-07 13:30N 25°12' E 121°19'5 9.4
2018-Apr-07 13:00N 25°09' E 121°23'1 1.0
2018-Apr-07 12:27N 25°10' E 121°23'0 0.0
2018-Apr-07 11:48N 25°10' E 121°23'0 0.0
2018-Apr-07 11:27N 25°10' E 121°23'0 0.0
2018-Apr-07 11:00N 25°10' E 121°23'0 0.0
2018-Apr-07 10:21N 25°10' E 121°23'0 0.0
2018-Apr-07 09:59N 25°10' E 121°23'0 0.0
2018-Apr-07 09:30N 25°10' E 121°23'0 0.0
2018-Apr-07 08:57N 25°10' E 121°23'0 0.0
2018-Apr-07 08:08N 25°10' E 121°23'0 0.0
2018-Apr-07 07:57N 25°10' E 121°23'0 0.0
2018-Apr-07 07:27N 25°10' E 121°23'0 0.0
2018-Apr-07 07:00N 25°10' E 121°23'0 0.0
2018-Apr-07 06:03N 25°10' E 121°23'0 0.0
2018-Apr-07 06:00N 25°10' E 121°23'0 0.0
2018-Apr-07 05:26N 25°10' E 121°23'0 0.0
2018-Apr-07 04:59N 25°10' E 121°23'0 0.0
2018-Apr-07 04:29N 25°10' E 121°23'0 0.0
2018-Apr-07 03:57N 25°10' E 121°23'0 0.0
2018-Apr-07 02:50N 25°10' E 121°23'0 0.0
2018-Apr-07 02:30N 25°10' E 121°23'0 0.0
2018-Apr-07 01:36N 25°10' E 121°23'0 0.0
2018-Apr-07 00:27N 25°10' E 121°23'0 0.0
2018-Apr-06 23:47N 25°10' E 121°23'0 0.0
2018-Apr-06 23:21N 25°10' E 121°23'0 0.0
2018-Apr-06 22:57N 25°10' E 121°23'0 0.1
2018-Apr-06 22:30N 25°10' E 121°23'0 0.0
2018-Apr-06 19:12N 25°10' E 121°23'0 0.0
2018-Apr-06 18:47N 25°10' E 121°23'0 0.0
2018-Apr-06 16:21N 25°10' E 121°23'0 0.1
2018-Apr-06 16:00N 25°10' E 121°23'1 1.4
2018-Apr-06 15:30N 25°09' E 121°22'3 6.1
2018-Apr-06 15:00N 25°10' E 121°19'5 9.2
2018-Apr-06 14:30N 25°14' E 121°16'5 8.8
2018-Apr-06 13:57N 25°18' E 121°14'4 9.6
2018-Apr-06 13:30N 25°22' E 121°14'611.4
2018-Apr-06 13:00N 25°28' E 121°16'31016.4
2018-Apr-05 18:09N 30°33' E 122°16'2 8.3
2018-Apr-05 17:55N 30°33' E 122°13'614.0
2018-Apr-05 17:30N 30°35' E 122°07'3 0.1
2018-Apr-04 14:57N 30°37' E 122°04'4 7.3
2018-Apr-04 14:28N 30°35' E 122°07'612.8
2018-Apr-04 13:59N 30°34' E 122°14'  
Track history (hours):
 
Tides and Currents Weather Stations Pressure Air Temp Water Temp Dewpoint Dewpoint Depression Visibility Wind Speed Wind Dir Waves Ship Positions

Tampa Triumph

Last reported at 2018-Apr-12 20:41 UTC. Time now 2018-Apr-20 12:52 UTC.
Position N 01°17' E 103°20'.

Length 365 m; draft 14 m.

Type: Cargo ship. MMSI: 374935000.

Date/timePositionNaut miles runAvg speedWind from/ knotsBaromVisibWave heightAir tempDewpointWater temp
2018-Apr-12 20:41N 01°17' E 103°20'422.4
2018-Apr-12 20:31N 01°15' E 103°23'1121.1
2018-Apr-12 19:59N 01°12' E 103°34'816.1
2018-Apr-12 19:29N 01°09' E 103°42'5 9.7
2018-Apr-12 19:00N 01°09' E 103°46'612.3
2018-Apr-12 18:30N 01°12' E 103°52'714.4
2018-Apr-12 18:01N 01°15' E 103°58'  
2018-Apr-08 04:18N 23°07' E 117°28'616.2
2018-Apr-08 03:57N 23°11' E 117°32'816.9
2018-Apr-08 03:30N 23°15' E 117°39'816.8
2018-Apr-08 03:00N 23°20' E 117°46'917.2
2018-Apr-08 02:30N 23°24' E 117°54'917.3
2018-Apr-08 01:58N 23°29' E 118°03'817.5
2018-Apr-08 01:30N 23°33' E 118°11'16317.7
2018-Apr-07 16:18N 25°02' E 120°40'617.8
2018-Apr-07 15:56N 25°06' E 120°46'818.0
2018-Apr-07 15:30N 25°10' E 120°54'816.0
2018-Apr-07 15:00N 25°14' E 121°01'612.1
2018-Apr-07 14:30N 25°15' E 121°08'611.7
2018-Apr-07 14:01N 25°15' E 121°14'510.3
2018-Apr-07 13:30N 25°12' E 121°19'5 9.4
2018-Apr-07 13:00N 25°09' E 121°23'1 1.0
2018-Apr-07 12:27N 25°10' E 121°23'0 0.0
2018-Apr-07 11:48N 25°10' E 121°23'0 0.0
2018-Apr-07 11:27N 25°10' E 121°23'0 0.0
2018-Apr-07 11:00N 25°10' E 121°23'0 0.0
2018-Apr-07 10:21N 25°10' E 121°23'0 0.0
2018-Apr-07 09:59N 25°10' E 121°23'0 0.0
2018-Apr-07 09:30N 25°10' E 121°23'0 0.0
2018-Apr-07 08:57N 25°10' E 121°23'0 0.0
2018-Apr-07 08:08N 25°10' E 121°23'0 0.0
2018-Apr-07 07:57N 25°10' E 121°23'0 0.0
2018-Apr-07 07:27N 25°10' E 121°23'0 0.0
2018-Apr-07 07:00N 25°10' E 121°23'0 0.0
2018-Apr-07 06:03N 25°10' E 121°23'0 0.0
2018-Apr-07 06:00N 25°10' E 121°23'0 0.0
2018-Apr-07 05:26N 25°10' E 121°23'0 0.0
2018-Apr-07 04:59N 25°10' E 121°23'0 0.0
2018-Apr-07 04:29N 25°10' E 121°23'0 0.0
2018-Apr-07 03:57N 25°10' E 121°23'0 0.0
2018-Apr-07 02:50N 25°10' E 121°23'0 0.0
2018-Apr-07 02:30N 25°10' E 121°23'0 0.0
2018-Apr-07 01:36N 25°10' E 121°23'0 0.0
2018-Apr-07 00:27N 25°10' E 121°23'0 0.0
2018-Apr-06 23:47N 25°10' E 121°23'0 0.0
2018-Apr-06 23:21N 25°10' E 121°23'0 0.0
2018-Apr-06 22:57N 25°10' E 121°23'0 0.1
2018-Apr-06 22:30N 25°10' E 121°23'0 0.0
2018-Apr-06 19:12N 25°10' E 121°23'0 0.0
2018-Apr-06 18:47N 25°10' E 121°23'0 0.0
2018-Apr-06 16:21N 25°10' E 121°23'0 0.1
2018-Apr-06 16:00N 25°10' E 121°23'1 1.4
2018-Apr-06 15:30N 25°09' E 121°22'3 6.1
2018-Apr-06 15:00N 25°10' E 121°19'5 9.2
2018-Apr-06 14:30N 25°14' E 121°16'5 8.8
2018-Apr-06 13:57N 25°18' E 121°14'4 9.6
2018-Apr-06 13:30N 25°22' E 121°14'611.4
2018-Apr-06 13:00N 25°28' E 121°16'31016.4
2018-Apr-05 18:09N 30°33' E 122°16'2 8.3
2018-Apr-05 17:55N 30°33' E 122°13'614.0
2018-Apr-05 17:30N 30°35' E 122°07'3 0.1
2018-Apr-04 14:57N 30°37' E 122°04'4 7.3
2018-Apr-04 14:28N 30°35' E 122°07'612.8
2018-Apr-04 13:59N 30°34' E 122°14'  

Dump ship's entire track history